createdAt,value
2023-04-10T00:00:43.545Z,8.10
2023-04-10T00:03:11.108Z,7.25
2023-04-10T00:05:38.497Z,10.23
2023-04-10T00:08:05.722Z,7.88
2023-04-10T00:10:33.819Z,7.85
2023-04-10T00:13:01.432Z,7.22
2023-04-10T00:15:29.201Z,7.93
2023-04-10T00:17:56.258Z,6.55
2023-04-10T00:20:26.596Z,8.02
2023-04-10T00:22:53.529Z,7.38
2023-04-10T00:25:20.639Z,8.80
2023-04-10T00:27:47.640Z,7.60
2023-04-10T00:30:14.923Z,6.88
2023-04-10T00:32:42.257Z,7.13
2023-04-10T00:35:09.711Z,6.88
2023-04-10T00:37:36.976Z,7.18
2023-04-10T00:40:05.073Z,7.53
2023-04-10T00:42:32.397Z,8.77
2023-04-10T00:45:00.346Z,8.10
2023-04-10T00:47:28.517Z,7.05
2023-04-10T00:49:55.750Z,6.63
2023-04-10T00:52:23.165Z,7.65
2023-04-10T00:54:50.235Z,7.65
2023-04-10T00:57:18.092Z,7.45
2023-04-10T00:59:45.425Z,7.00
2023-04-10T01:02:13.674Z,7.05
2023-04-10T01:04:41.385Z,6.45
2023-04-10T01:07:33.556Z,7.22
2023-04-10T01:10:05.238Z,7.93
2023-04-10T01:12:44.123Z,6.55
2023-04-10T01:15:12.788Z,6.15
2023-04-10T01:17:42.816Z,6.10
2023-04-10T01:20:32.109Z,6.10
2023-04-10T01:23:42.537Z,6.40
2023-04-10T01:26:12.066Z,5.65
2023-04-10T01:29:02.170Z,5.50
2023-04-10T01:31:42.250Z,5.65
2023-04-10T01:34:22.434Z,5.65
2023-04-10T01:36:54.352Z,10.95
2023-04-10T01:39:23.256Z,5.82
2023-04-10T01:41:56.958Z,5.65
2023-04-10T01:44:27.941Z,5.38
2023-04-10T01:46:56.765Z,6.63
2023-04-10T01:49:26.938Z,5.97
2023-04-10T01:51:58.589Z,6.40
2023-04-10T01:54:32.022Z,6.15
2023-04-10T01:57:00.905Z,5.88
2023-04-10T01:59:28.192Z,5.72
2023-04-10T02:02:00.273Z,5.13
2023-04-10T02:04:28.069Z,5.93
2023-04-10T02:07:03.349Z,5.13
2023-04-10T02:09:33.319Z,5.45
2023-04-10T02:12:07.567Z,6.93
2023-04-10T02:14:39.209Z,5.68
2023-04-10T02:17:09.264Z,5.50
2023-04-10T02:19:38.265Z,6.47
2023-04-10T02:22:06.545Z,5.63
2023-04-10T02:24:34.527Z,6.03
2023-04-10T02:27:01.969Z,7.68
2023-04-10T02:29:28.992Z,5.65
2023-04-10T02:31:56.467Z,4.85
2023-04-10T02:34:23.593Z,5.00
2023-04-10T02:36:50.565Z,5.85
2023-04-10T02:39:17.533Z,5.35
2023-04-10T02:41:44.498Z,4.70
2023-04-10T02:44:11.423Z,5.60
2023-04-10T02:46:38.402Z,4.88
2023-04-10T02:49:05.475Z,4.55
2023-04-10T02:51:36.529Z,4.25
2023-04-10T02:56:30.503Z,4.43
2023-04-10T02:58:57.585Z,5.07
2023-04-10T03:01:24.608Z,3.65
2023-04-10T03:03:51.671Z,3.83
2023-04-10T03:06:18.763Z,4.05
2023-04-10T03:08:45.691Z,4.18
2023-04-10T03:11:12.693Z,4.05
2023-04-10T03:13:39.713Z,3.50
2023-04-10T03:16:07.454Z,3.65
2023-04-10T03:18:35.238Z,3.00
2023-04-10T03:21:05.264Z,3.50
2023-04-10T03:23:32.244Z,3.10
2023-04-10T03:25:59.428Z,3.33
2023-04-10T03:28:26.404Z,3.10
2023-04-10T03:30:53.314Z,2.70
2023-04-10T03:33:20.587Z,4.53
2023-04-10T03:35:47.868Z,3.72
2023-04-10T03:38:15.014Z,2.65
2023-04-10T03:40:41.937Z,2.55
2023-04-10T03:43:08.994Z,2.50
2023-04-10T03:45:36.035Z,2.67
2023-04-10T03:48:03.097Z,2.33
2023-04-10T03:50:30.048Z,2.47
2023-04-10T03:52:57.023Z,2.28
2023-04-10T03:55:23.938Z,2.20
2023-04-10T03:57:50.858Z,2.20
2023-04-10T04:00:18.249Z,2.92
2023-04-10T04:02:45.452Z,2.45
2023-04-10T04:05:12.684Z,2.22
2023-04-10T04:07:39.873Z,2.40
2023-04-10T04:10:07.343Z,2.65
2023-04-10T04:12:34.277Z,1.90
2023-04-10T04:15:01.232Z,2.00
2023-04-10T04:17:28.162Z,1.90
2023-04-10T04:19:55.086Z,5.35
2023-04-10T04:22:22.078Z,1.73
2023-04-10T04:24:48.999Z,1.80
2023-04-10T04:27:16.450Z,1.83
2023-04-10T04:29:43.456Z,1.60
2023-04-10T04:32:10.449Z,4.00
2023-04-10T04:34:37.487Z,1.88
2023-04-10T04:37:05.791Z,1.77
2023-04-10T04:39:32.835Z,2.60
2023-04-10T04:41:59.848Z,1.70
2023-04-10T04:44:26.851Z,2.35
2023-04-10T04:46:53.768Z,1.50
2023-04-10T04:49:20.866Z,25.85
2023-04-10T04:51:47.915Z,1.83
2023-04-10T04:54:14.929Z,4.80
2023-04-10T04:56:41.927Z,7.07
2023-04-10T04:59:08.936Z,1.70
2023-04-10T05:01:36.095Z,3.15
2023-04-10T05:04:03.254Z,1.50
2023-04-10T05:06:30.242Z,4.40
2023-04-10T05:08:57.129Z,1.92
2023-04-10T05:11:24.093Z,14.10
2023-04-10T05:13:51.078Z,3.40
2023-04-10T05:16:18.078Z,8.35
2023-04-10T05:18:45.118Z,14.02
2023-04-10T05:21:12.045Z,6.72
2023-04-10T05:23:39.015Z,8.10
2023-04-10T05:26:06.502Z,3.28
2023-04-10T05:28:33.411Z,6.53
2023-04-10T05:31:00.357Z,6.53
2023-04-10T05:33:27.360Z,4.55
2023-04-10T05:35:54.799Z,9.15
2023-04-10T05:38:21.862Z,3.20
2023-04-10T05:40:48.855Z,8.38
2023-04-10T05:43:15.925Z,4.65
2023-04-10T05:45:45.903Z,3.00
2023-04-10T05:48:12.968Z,2.35
2023-04-10T05:50:40.006Z,2.92
2023-04-10T05:53:06.971Z,2.75
2023-04-10T05:55:34.297Z,3.30
2023-04-10T05:58:01.328Z,3.65
2023-04-10T06:00:28.356Z,4.70
2023-04-10T06:02:55.446Z,2.00
2023-04-10T06:05:22.678Z,2.22
2023-04-10T06:07:49.666Z,2.35
2023-04-10T06:10:17.329Z,2.50
2023-04-10T06:12:44.326Z,11.55
2023-04-10T06:15:11.861Z,3.88
2023-04-10T06:17:47.950Z,9.73
2023-04-10T06:20:15.082Z,6.60
2023-04-10T06:22:42.110Z,6.15
2023-04-10T06:25:09.636Z,4.32
2023-04-10T06:27:36.838Z,8.45
2023-04-10T06:30:04.185Z,6.63
2023-04-10T06:32:31.982Z,7.90
2023-04-10T06:34:59.524Z,5.60
2023-04-10T06:37:31.720Z,10.35
2023-04-10T06:40:10.586Z,9.95
2023-04-10T06:42:38.361Z,7.30
2023-04-10T06:45:06.239Z,2.88
2023-04-10T06:47:33.336Z,4.55
2023-04-10T06:50:00.498Z,5.22
2023-04-10T06:52:27.695Z,7.05
2023-04-10T06:54:54.715Z,4.88
2023-04-10T06:57:21.801Z,3.08
2023-04-10T06:59:49.220Z,1.02
2023-04-10T07:02:16.290Z,3.05
2023-04-10T07:04:43.377Z,7.88
2023-04-10T07:07:12.951Z,6.47
2023-04-10T07:09:40.450Z,28.08
2023-04-10T07:12:07.599Z,8.55
2023-04-10T07:14:36.073Z,6.63
2023-04-10T07:17:06.462Z,15.30
2023-04-10T07:19:33.539Z,6.13
2023-04-10T07:22:01.985Z,4.82
2023-04-10T07:24:29.074Z,4.68
2023-04-10T07:26:57.766Z,2.03
2023-04-10T07:29:25.067Z,2.10
2023-04-10T07:31:52.291Z,10.55
2023-04-10T07:34:19.621Z,3.70
2023-04-10T07:36:47.695Z,2.47
2023-04-10T07:39:14.790Z,3.25
2023-04-10T07:41:42.430Z,2.47
2023-04-10T07:44:09.702Z,1.98
2023-04-10T07:46:37.274Z,3.28
2023-04-10T07:49:06.136Z,2.33
2023-04-10T07:51:35.286Z,3.15
2023-04-10T07:54:04.267Z,1.65
2023-04-10T07:56:34.238Z,1.52
2023-04-10T07:59:01.949Z,1.75
2023-04-10T08:01:30.170Z,1.95
2023-04-10T08:03:58.060Z,2.30
2023-04-10T08:06:26.598Z,3.83
2023-04-10T08:08:54.408Z,3.35
2023-04-10T08:11:32.545Z,21.65
2023-04-10T08:14:05.995Z,4.60
2023-04-10T08:16:36.538Z,1.73
2023-04-10T08:19:04.506Z,4.70
2023-04-10T08:21:33.363Z,5.00
2023-04-10T08:24:03.362Z,4.28
2023-04-10T08:26:31.114Z,12.27
2023-04-10T08:29:00.534Z,7.55
2023-04-10T08:31:29.385Z,8.82
2023-04-10T08:33:57.912Z,5.78
2023-04-10T08:36:27.075Z,5.03
2023-04-10T08:38:54.386Z,5.07
2023-04-10T08:41:21.690Z,33.25
2023-04-10T08:43:50.360Z,40.45
2023-04-10T08:46:21.031Z,24.30
2023-04-10T08:49:00.123Z,52.08
2023-04-10T08:51:32.659Z,61.30
2023-04-10T08:54:07.130Z,56.45
2023-04-10T08:56:36.596Z,54.53
2023-04-10T08:59:03.992Z,99.78
2023-04-10T09:01:31.677Z,151.65
2023-04-10T09:03:59.786Z,218.43
2023-04-10T09:06:27.662Z,705.47
2023-04-10T09:08:54.894Z,374.95
2023-04-10T09:11:22.195Z,263.05
2023-04-10T09:13:49.276Z,231.05
2023-04-10T09:16:16.315Z,201.15
2023-04-10T09:18:44.581Z,258.67
2023-04-10T09:21:13.559Z,231.02
2023-04-10T09:23:43.031Z,197.27
2023-04-10T09:26:26.957Z,193.75
2023-04-10T09:28:58.937Z,165.43
2023-04-10T09:31:36.619Z,137.57
2023-04-10T09:34:22.767Z,122.97
2023-04-10T09:36:58.502Z,107.55
2023-04-10T09:39:45.876Z,110.60
2023-04-10T09:42:14.527Z,108.60
2023-04-10T09:44:42.775Z,101.07
2023-04-10T09:47:17.712Z,100.53
2023-04-10T09:49:55.468Z,92.07
2023-04-10T09:52:36.017Z,77.97
2023-04-10T09:55:10.186Z,74.97
2023-04-10T09:57:37.381Z,86.90
2023-04-10T10:00:08.667Z,34.90
2023-04-10T10:02:42.708Z,41.80
2023-04-10T10:05:10.889Z,27.50
2023-04-10T10:07:39.292Z,35.22
2023-04-10T10:10:10.796Z,29.45
2023-04-10T10:12:46.632Z,32.08
2023-04-10T10:15:21.110Z,33.03
2023-04-10T10:18:26.722Z,20.17
2023-04-10T10:20:54.457Z,33.78
2023-04-10T10:23:22.860Z,11.25
2023-04-10T10:25:51.227Z,11.85
2023-04-10T10:28:19.423Z,9.43
2023-04-10T10:30:48.496Z,4.07
2023-04-10T10:33:15.819Z,4.65
2023-04-10T10:35:43.707Z,2.25
2023-04-10T10:38:11.047Z,2.28
2023-04-10T10:40:55.695Z,10.90
2023-04-10T10:43:46.699Z,3.97
2023-04-10T10:46:20.804Z,23.08
2023-04-10T10:48:58.485Z,15.07
2023-04-10T10:51:48.341Z,14.38
2023-04-10T10:54:32.251Z,20.92
2023-04-10T10:57:05.878Z,22.20
2023-04-10T10:59:48.348Z,15.45
2023-04-10T11:02:20.046Z,31.70
2023-04-10T11:04:49.022Z,21.92
2023-04-10T11:07:17.248Z,15.23
2023-04-10T11:09:52.109Z,29.13
2023-04-10T11:12:26.358Z,14.93
2023-04-10T11:15:05.422Z,28.25
2023-04-10T11:17:52.099Z,15.85
2023-04-10T11:20:22.375Z,15.05
2023-04-10T11:23:12.263Z,13.82
2023-04-10T11:25:53.401Z,33.88
2023-04-10T11:28:32.479Z,15.50
2023-04-10T11:31:20.159Z,15.02
2023-04-10T11:34:08.494Z,22.52
2023-04-10T11:36:39.454Z,15.25
2023-04-10T11:39:09.271Z,17.80
2023-04-10T11:41:38.061Z,19.65
2023-04-10T11:44:10.883Z,28.33
2023-04-10T11:46:39.530Z,26.80
2023-04-10T11:49:10.155Z,22.30
2023-04-10T11:51:38.878Z,21.65
2023-04-10T11:54:13.938Z,9.38
2023-04-10T11:56:42.868Z,11.57
2023-04-10T11:59:20.135Z,7.97
2023-04-10T12:01:47.727Z,8.50
2023-04-10T12:04:19.663Z,4.15
2023-04-10T12:06:54.082Z,5.00
2023-04-10T12:09:22.065Z,3.30
2023-04-10T12:11:51.191Z,5.97
2023-04-10T12:14:18.503Z,4.88
2023-04-10T12:16:46.668Z,2.10
2023-04-10T12:19:15.205Z,8.65
2023-04-10T12:21:45.483Z,5.47
2023-04-10T12:24:13.425Z,4.47
2023-04-10T12:26:49.937Z,6.05
2023-04-10T12:29:17.048Z,3.47
2023-04-10T12:31:44.158Z,5.78
2023-04-10T12:34:18.765Z,4.97
2023-04-10T12:36:53.770Z,2.33
2023-04-10T12:39:25.238Z,4.65
2023-04-10T12:41:52.514Z,4.45
2023-04-10T12:44:21.013Z,2.15
2023-04-10T12:46:48.358Z,4.82
2023-04-10T12:49:19.297Z,1.60
2023-04-10T12:51:53.744Z,2.38
2023-04-10T12:54:31.976Z,3.03
2023-04-10T12:57:02.733Z,2.80
2023-04-10T12:59:31.052Z,2.83
2023-04-10T13:01:58.558Z,1.83
2023-04-10T13:04:25.987Z,2.42
2023-04-10T13:06:53.241Z,2.08
2023-04-10T13:09:20.599Z,3.45
2023-04-10T13:11:49.632Z,1.15
2023-04-10T13:14:18.253Z,2.33
2023-04-10T13:16:45.486Z,13.32
2023-04-10T13:19:13.417Z,4.32
2023-04-10T13:21:40.550Z,4.53
2023-04-10T13:24:07.783Z,6.82
2023-04-10T13:26:34.990Z,4.32
2023-04-10T13:29:02.324Z,4.20
2023-04-10T13:31:29.602Z,9.60
2023-04-10T13:33:56.808Z,9.48
2023-04-10T13:36:24.087Z,4.93
2023-04-10T13:38:51.602Z,5.78
2023-04-10T13:41:18.851Z,12.45
2023-04-10T13:43:45.843Z,8.70
2023-04-10T13:46:12.958Z,2.60
2023-04-10T13:48:41.760Z,7.15
2023-04-10T13:51:09.624Z,15.93
2023-04-10T13:53:37.277Z,10.15
2023-04-10T13:56:05.108Z,30.45
2023-04-10T13:58:34.879Z,24.02
2023-04-10T14:01:02.771Z,13.02
2023-04-10T14:03:30.101Z,8.57
2023-04-10T14:05:57.395Z,15.27
2023-04-10T14:08:24.669Z,9.30
2023-04-10T14:10:51.927Z,9.63
2023-04-10T14:13:19.673Z,7.10
2023-04-10T14:15:47.309Z,9.48
2023-04-10T14:18:17.956Z,3.50
2023-04-10T14:20:46.013Z,15.75
2023-04-10T14:23:18.753Z,22.00
2023-04-10T14:25:46.529Z,20.27
2023-04-10T14:28:18.321Z,31.35
2023-04-10T14:30:50.397Z,7.68
2023-04-10T14:33:20.032Z,6.05
2023-04-10T14:35:48.371Z,5.50
2023-04-10T14:38:18.831Z,4.13
2023-04-10T14:40:49.072Z,5.70
2023-04-10T14:43:17.172Z,6.07
2023-04-10T14:45:44.745Z,5.80
2023-04-10T14:48:13.457Z,5.72
2023-04-10T14:50:40.982Z,16.23
2023-04-10T14:53:10.203Z,29.58
2023-04-10T14:55:37.889Z,24.55
2023-04-10T14:58:07.278Z,10.65
2023-04-10T15:00:34.373Z,29.58
2023-04-10T15:03:01.836Z,19.33
2023-04-10T15:05:29.400Z,20.65
2023-04-10T15:07:56.884Z,30.23
2023-04-10T15:10:24.312Z,43.10
2023-04-10T15:12:51.633Z,21.20
2023-04-10T15:15:19.344Z,12.20
2023-04-10T15:17:46.790Z,22.02
2023-04-10T15:20:14.792Z,47.63
2023-04-10T15:22:43.433Z,54.67
2023-04-10T15:25:12.542Z,33.20
2023-04-10T15:27:39.922Z,32.17
2023-04-10T15:30:07.713Z,18.48
2023-04-10T15:32:38.452Z,21.95
2023-04-10T15:35:06.618Z,18.40
2023-04-10T15:37:36.736Z,47.47
2023-04-10T15:40:07.178Z,52.35
2023-04-10T15:42:35.289Z,35.90
2023-04-10T15:45:03.819Z,31.23
2023-04-10T15:47:32.758Z,23.58
2023-04-10T15:50:01.402Z,30.15
2023-04-10T15:52:30.083Z,16.05
2023-04-10T15:54:57.813Z,20.25
2023-04-10T15:57:25.198Z,19.27
2023-04-10T15:59:54.817Z,22.25
2023-04-10T16:02:22.027Z,14.05
2023-04-10T16:04:50.323Z,12.90
2023-04-10T16:07:17.529Z,17.02
2023-04-10T16:09:44.705Z,14.85
2023-04-10T16:12:13.300Z,6.22
2023-04-10T16:14:40.956Z,6.53
2023-04-10T16:17:08.301Z,3.13
2023-04-10T16:19:35.481Z,11.32
2023-04-10T16:22:02.842Z,6.57
2023-04-10T16:24:30.317Z,23.92
2023-04-10T16:26:59.181Z,8.73
2023-04-10T16:29:26.686Z,8.57
2023-04-10T16:31:54.099Z,28.02
2023-04-10T16:34:21.804Z,12.43
2023-04-10T16:36:48.958Z,14.32
2023-04-10T16:39:16.416Z,9.05
2023-04-10T16:41:44.498Z,6.90
2023-04-10T16:44:11.727Z,13.13
2023-04-10T16:46:38.973Z,5.25
2023-04-10T16:49:06.480Z,10.32
2023-04-10T16:51:33.769Z,13.05
2023-04-10T16:54:00.886Z,25.17
2023-04-10T16:56:28.547Z,23.52
2023-04-10T16:58:56.203Z,19.25
2023-04-10T17:01:28.019Z,16.95
2023-04-10T17:03:55.684Z,38.83
2023-04-10T17:06:24.026Z,19.85
2023-04-10T17:08:51.386Z,35.13
2023-04-10T17:11:20.689Z,54.72
2023-04-10T17:13:48.282Z,40.35
2023-04-10T17:16:16.376Z,31.83
2023-04-10T17:18:43.993Z,35.03
2023-04-10T17:21:12.930Z,29.52
2023-04-10T17:23:40.826Z,23.33
2023-04-10T17:26:13.621Z,27.35
2023-04-10T17:28:41.738Z,26.27
2023-04-10T17:31:09.349Z,27.23
2023-04-10T17:33:36.554Z,19.48
2023-04-10T17:36:03.975Z,22.90
2023-04-10T17:38:31.190Z,28.75
2023-04-10T17:40:58.575Z,18.02
2023-04-10T17:43:27.218Z,17.42
2023-04-10T17:45:54.432Z,13.65
2023-04-10T17:48:21.706Z,16.92
2023-04-10T17:50:49.858Z,12.75
2023-04-10T17:53:17.398Z,11.50
2023-04-10T17:55:46.192Z,18.40
2023-04-10T17:58:14.467Z,11.32
2023-04-10T18:00:43.722Z,22.35
2023-04-10T18:03:11.095Z,13.70
2023-04-10T18:05:40.225Z,7.45
2023-04-10T18:08:09.057Z,5.40
2023-04-10T18:10:37.578Z,7.03
2023-04-10T18:13:05.228Z,2.50
2023-04-10T18:15:32.872Z,7.38
2023-04-10T18:18:00.054Z,9.98
2023-04-10T18:20:27.428Z,7.95
2023-04-10T18:22:55.527Z,10.25
2023-04-10T18:25:22.742Z,15.10
2023-04-10T18:28:09.745Z,12.20
2023-04-10T18:30:39.496Z,5.82
2023-04-10T18:33:10.689Z,29.55
2023-04-10T18:35:38.507Z,21.15
2023-04-10T18:38:05.864Z,17.70
2023-04-10T18:40:35.092Z,27.80
2023-04-10T18:43:02.430Z,26.58
2023-04-10T18:45:30.421Z,18.17
2023-04-10T18:47:57.682Z,28.95
2023-04-10T18:50:28.591Z,25.65
2023-04-10T18:52:56.070Z,26.40
2023-04-10T18:55:23.314Z,26.17
2023-04-10T18:57:50.594Z,44.65
2023-04-10T19:00:18.169Z,32.45
2023-04-10T19:02:45.681Z,35.35
2023-04-10T19:05:15.110Z,36.88
2023-04-10T19:07:49.838Z,24.88
2023-04-10T19:10:24.361Z,23.80
2023-04-10T19:12:53.859Z,25.15
2023-04-10T19:15:21.204Z,23.67
2023-04-10T19:17:48.567Z,22.10
2023-04-10T19:20:16.581Z,17.40
2023-04-10T19:23:04.685Z,11.13
2023-04-10T19:25:33.822Z,18.45
2023-04-10T19:28:03.534Z,16.42
2023-04-10T19:30:30.898Z,15.63
2023-04-10T19:32:58.891Z,11.80
2023-04-10T19:35:27.781Z,20.38
2023-04-10T19:38:01.909Z,13.55
2023-04-10T19:40:31.664Z,16.90
2023-04-10T19:43:02.397Z,11.27
2023-04-10T19:45:30.273Z,20.77
2023-04-10T19:47:57.871Z,17.23
2023-04-10T19:50:33.700Z,33.65
2023-04-10T19:53:04.273Z,21.63
2023-04-10T19:55:32.363Z,14.32
2023-04-10T19:57:59.749Z,19.63
2023-04-10T20:00:28.695Z,23.55
2023-04-10T20:02:57.700Z,15.88
2023-04-10T20:05:29.731Z,8.48
2023-04-10T20:07:58.857Z,9.30
2023-04-10T20:10:26.763Z,9.07
2023-04-10T20:12:54.301Z,12.73
2023-04-10T20:15:22.147Z,11.70
2023-04-10T20:17:49.883Z,9.68
2023-04-10T20:20:18.780Z,13.98
2023-04-10T20:22:46.531Z,20.92
2023-04-10T20:25:13.936Z,6.00
2023-04-10T20:27:41.701Z,9.43
2023-04-10T20:30:09.686Z,3.42
2023-04-10T20:32:37.618Z,10.93
2023-04-10T20:35:07.461Z,9.35
2023-04-10T20:37:35.677Z,5.38
2023-04-10T20:40:03.479Z,7.68
2023-04-10T20:42:30.850Z,12.25
2023-04-10T20:44:59.467Z,8.93
2023-04-10T20:47:27.458Z,8.25
2023-04-10T20:49:57.364Z,9.25
2023-04-10T20:52:26.096Z,3.95
2023-04-10T20:54:53.659Z,5.55
2023-04-10T20:57:21.597Z,10.38
2023-04-10T20:59:49.615Z,6.57
2023-04-10T21:02:18.997Z,5.80
2023-04-10T21:04:46.946Z,7.85
2023-04-10T21:07:15.435Z,7.53
2023-04-10T21:09:42.991Z,5.72
2023-04-10T21:12:10.576Z,5.70
2023-04-10T21:14:39.011Z,5.53
2023-04-10T21:17:07.646Z,4.57
2023-04-10T21:19:36.077Z,6.38
2023-04-10T21:22:07.690Z,5.20
2023-04-10T21:24:35.384Z,4.30
2023-04-10T21:27:03.635Z,4.50
2023-04-10T21:29:31.699Z,5.40
2023-04-10T21:31:58.893Z,9.85
2023-04-10T21:34:26.551Z,10.50
2023-04-10T21:36:54.792Z,11.00
2023-04-10T21:39:21.937Z,9.38
2023-04-10T21:41:49.224Z,10.05
2023-04-10T21:44:16.506Z,10.60
2023-04-10T21:46:43.748Z,6.80
2023-04-10T21:49:11.081Z,7.53
2023-04-10T21:51:38.420Z,5.57
2023-04-10T21:54:05.770Z,5.32
2023-04-10T21:56:33.566Z,2.88
2023-04-10T21:59:02.346Z,7.20
2023-04-10T22:01:30.201Z,2.22
2023-04-10T22:03:58.250Z,4.32
2023-04-10T22:06:25.765Z,3.42
2023-04-10T22:08:53.432Z,3.30
2023-04-10T22:11:21.403Z,3.28
2023-04-10T22:13:48.796Z,1.15
2023-04-10T22:16:16.893Z,2.38
2023-04-10T22:18:44.045Z,1.42
2023-04-10T22:21:14.185Z,2.42
2023-04-10T22:23:41.902Z,1.40
2023-04-10T22:26:09.092Z,1.13
2023-04-10T22:28:36.167Z,2.60
2023-04-10T22:31:03.225Z,1.38
2023-04-10T22:33:33.370Z,1.48
2023-04-10T22:36:00.633Z,1.80
2023-04-10T22:38:27.682Z,0.95
2023-04-10T22:40:55.538Z,1.95
2023-04-10T22:43:22.534Z,2.53
2023-04-10T22:45:49.591Z,1.63
2023-04-10T22:48:16.758Z,2.35
2023-04-10T22:50:43.831Z,1.70
2023-04-10T22:53:11.624Z,2.80
2023-04-10T22:55:39.859Z,1.70
2023-04-10T22:58:07.469Z,1.15
2023-04-10T23:00:34.958Z,10.95
2023-04-10T23:03:02.936Z,2.70
2023-04-10T23:05:30.127Z,3.20
2023-04-10T23:07:58.430Z,10.88
2023-04-10T23:10:25.471Z,3.90
2023-04-10T23:12:52.420Z,4.53
2023-04-10T23:15:19.374Z,3.88
2023-04-10T23:17:46.343Z,2.75
2023-04-10T23:20:13.603Z,2.75
2023-04-10T23:22:40.655Z,4.18
2023-04-10T23:25:07.922Z,3.22
2023-04-10T23:27:34.882Z,4.05
2023-04-10T23:30:02.543Z,2.38
2023-04-10T23:32:29.700Z,1.58
2023-04-10T23:34:56.746Z,1.67
2023-04-10T23:37:23.701Z,3.65
2023-04-10T23:39:50.722Z,1.42
2023-04-10T23:42:17.752Z,3.25
2023-04-10T23:44:44.716Z,1.80
2023-04-10T23:47:11.924Z,2.92
2023-04-10T23:49:38.977Z,0.65
2023-04-10T23:52:06.004Z,1.73
2023-04-10T23:54:33.014Z,1.40
2023-04-10T23:57:00.937Z,1.98
2023-04-10T23:59:28.021Z,1.98
